»·PEaware :: JZA8348 KSAN-KLAX

JZA8348 :: KSAN-KLAX

FLIGHT INFORMATION

Flight Status: Arrived
Operator:
Air Canada Jazz
More flights by this operator :: More flights under this callsign
Pilot: Cody A. (8484)
Aircraft: DEHAVILLAND DASH 8 400
(DH8D)
More flights by this aircraft type
Origin: KSAN San Diego Intl-Lindbergh
United States
Destination: KLAX Los Angeles Intl
United States
More flights between these airports :: More routes between these airports
Route: +PEBLE6 SLI
File this flight plan on PilotEdge
Remarks:
Altitude:
(Current/Filed)
19,000ft
Speed:
(Current/Filed)
300kts
Departed: 05-Jan-16 09:13 PM
Arrived: 05-Jan-16 09:50 PM
Distance/Time
Traveled:
94nm/0:37
Distance/Time
To Go:
Arrived

Flight Plot

Page will automatically refresh every two minutes.


Map Options




Map Legend


Flown Route
Filed Route
Departure Airport
Arrival Airport
Navaid (VOR, NDB)
Fix

Horizontal Profiles

Position Reports

Time Latitude Longitude Heading Altitude Ground
Speed
05-Jan-16 20:46 32.732393 -117.195999 309 22ft 0kts
05-Jan-16 20:47 32.732393 -117.195999 309 22ft 0kts
05-Jan-16 20:48 32.732393 -117.195999 309 22ft 0kts
05-Jan-16 20:49 32.732393 -117.195999 309 22ft 0kts
05-Jan-16 20:50 32.732393 -117.195999 309 22ft 0kts
05-Jan-16 20:52 32.732393 -117.195999 309 22ft 0kts
05-Jan-16 20:53 32.732393 -117.195999 309 22ft 0kts
05-Jan-16 20:54 32.732393 -117.195999 309 22ft 0kts
05-Jan-16 20:55 32.732393 -117.195999 309 22ft 0kts
05-Jan-16 20:56 32.732393 -117.195999 309 22ft 0kts
05-Jan-16 20:57 32.732393 -117.195999 309 22ft 0kts
05-Jan-16 20:58 32.732393 -117.195999 309 22ft 0kts
05-Jan-16 20:59 32.732393 -117.195999 309 22ft 0kts
05-Jan-16 21:00 32.732202 -117.195727 309 23ft 3kts
05-Jan-16 21:01 32.732026 -117.195479 310 22ft 0kts
05-Jan-16 21:02 32.732026 -117.195479 310 22ft 0kts
05-Jan-16 21:03 32.732026 -117.195479 310 22ft 0kts
05-Jan-16 21:04 32.732726 -117.194647 20 23ft 6kts
05-Jan-16 21:05 32.732888 -117.190870 106 23ft 23kts
05-Jan-16 21:06 32.731045 -117.183459 106 23ft 30kts
05-Jan-16 21:07 32.729513 -117.177166 100 23ft 2kts
05-Jan-16 21:08 32.729689 -117.176084 63 23ft 3kts
05-Jan-16 21:09 32.732467 -117.185875 286 23ft 110kts
05-Jan-16 21:10 32.746252 -117.225033 299 1918ft 140kts
05-Jan-16 21:11 32.767847 -117.271003 297 4153ft 163kts
05-Jan-16 21:12 32.790825 -117.320234 297 6547ft 181kts
05-Jan-16 21:13 32.818195 -117.378617 297 8797ft 212kts
05-Jan-16 21:14 32.851781 -117.442464 318 10893ft 243kts
05-Jan-16 21:15 32.910166 -117.485528 327 12856ft 259kts
05-Jan-16 21:16 32.975156 -117.532503 326 14047ft 282kts
05-Jan-16 21:17 33.034316 -117.601858 306 14235ft 313kts
05-Jan-16 21:18 33.084995 -117.685877 304 14242ft 321kts
05-Jan-16 21:19 33.139159 -117.770996 307 14243ft 324kts
05-Jan-16 21:20 33.205054 -117.842658 336 14244ft 325kts
05-Jan-16 21:21 33.291188 -117.876126 342 14243ft 325kts
05-Jan-16 21:22 33.371794 -117.904791 343 13656ft 287kts
05-Jan-16 21:23 33.440744 -117.929756 342 11833ft 238kts
05-Jan-16 21:24 33.501331 -117.951798 342 10029ft 221kts
05-Jan-16 21:25 33.557928 -117.972399 342 8268ft 214kts
05-Jan-16 21:26 33.615915 -117.993535 342 7014ft 215kts
05-Jan-16 21:27 33.673279 -118.014467 342 7106ft 213kts
05-Jan-16 21:28 33.730061 -118.035251 342 7110ft 212kts
05-Jan-16 21:29 33.784928 -118.060082 313 7095ft 212kts
05-Jan-16 21:30 33.820549 -118.116844 307 7098ft 210kts
05-Jan-16 21:31 33.859140 -118.150780 335 7045ft 128kts
05-Jan-16 21:32 33.900366 -118.171559 356 7244ft 170kts
05-Jan-16 21:33 33.917807 -118.126284 93 6320ft 183kts
05-Jan-16 21:34 33.915031 -118.067309 92 4908ft 169kts
05-Jan-16 21:35 33.912454 -118.011576 94 3799ft 166kts
05-Jan-16 21:36 33.922751 -117.971401 349 3744ft 161kts
05-Jan-16 21:37 33.948196 -118.018368 292 3740ft 183kts
05-Jan-16 21:38 33.966517 -118.071660 280 3731ft 159kts
05-Jan-16 21:38 33.963131 -118.113701 248 3770ft 145kts
05-Jan-16 21:40 33.950915 -118.169445 267 3671ft 151kts
05-Jan-16 21:40 33.949863 -118.212497 270 3199ft 151kts
05-Jan-16 21:42 33.948909 -118.268555 262 2252ft 130kts
05-Jan-16 21:42 33.944781 -118.304871 262 1624ft 128kts
05-Jan-16 21:43 33.941834 -118.346200 260 1097ft 124kts
05-Jan-16 21:44 33.937391 -118.384328 264 224ft 109kts
05-Jan-16 21:45 33.936591 -118.399509 295 133ft 0kts
05-Jan-16 21:46 33.936591 -118.399509 295 133ft 0kts
05-Jan-16 21:47 33.936591 -118.399509 295 133ft 0kts

Navigation Log

Ident Type
Flight plan parsing failed, navigation log unavailable